createdAt,value
2022-09-05T00:00:12.353Z,101623.09
2022-09-05T00:02:48.745Z,101628.56
2022-09-05T00:05:41.279Z,101626.91
2022-09-05T00:08:39.884Z,101627.91
2022-09-05T00:11:43.176Z,101626.25
2022-09-05T00:15:14.320Z,101629.91
2022-09-05T00:17:35.621Z,101628.22
2022-09-05T00:24:26.249Z,101624.66
2022-09-05T00:24:37.724Z,101622.09
2022-09-05T00:26:56.781Z,101624.03
2022-09-05T00:31:08.780Z,101626.81
2022-09-05T00:33:17.506Z,101630.53
2022-09-05T00:36:02.250Z,101627.88
2022-09-05T00:38:36.530Z,101625.25
2022-09-05T00:41:08.378Z,101629.81
2022-09-05T00:43:37.631Z,101625.31
2022-09-05T00:46:15.824Z,101623.59
2022-09-05T00:48:49.201Z,101620.94
2022-09-05T00:51:34.791Z,101626.38
2022-09-05T00:54:01.721Z,101626.50
2022-09-05T00:56:53.404Z,101630.13
2022-09-05T00:59:58.472Z,101632.94
2022-09-05T01:02:51.991Z,101630.34
2022-09-05T01:05:53.190Z,101628.63
2022-09-05T01:08:45.128Z,101628.66
2022-09-05T01:11:12.058Z,101626.03
2022-09-05T01:14:16.325Z,101635.03
2022-09-05T01:17:04.605Z,101633.25
2022-09-05T01:19:56.152Z,101636.84
2022-09-05T01:22:48.233Z,101631.50
2022-09-05T01:25:31.438Z,101635.97
2022-09-05T01:29:13.421Z,101633.22
2022-09-05T01:31:07.446Z,101638.63
2022-09-05T01:33:54.379Z,101638.53
2022-09-05T01:36:42.386Z,101633.22
2022-09-05T01:39:53.598Z,101635.03
2022-09-05T01:42:32.617Z,101626.13
2022-09-05T01:45:04.452Z,101633.41
2022-09-05T01:47:45.421Z,101626.28
2022-09-05T01:50:17.184Z,101626.41
2022-09-05T01:53:08.458Z,101620.13
2022-09-05T01:56:18.215Z,101624.75
2022-09-05T01:58:55.416Z,101616.81
2022-09-05T02:04:35.620Z,101611.53
2022-09-05T02:07:30.048Z,101618.00
2022-09-05T02:10:24.487Z,101610.91
2022-09-05T02:13:03.917Z,101614.59
2022-09-05T02:15:40.487Z,101612.00
2022-09-05T02:18:14.843Z,101620.13
2022-09-05T02:20:41.475Z,101620.25
2022-09-05T02:23:24.770Z,101623.06
2022-09-05T02:26:18.738Z,101622.22
2022-09-05T02:28:56.211Z,101613.31
2022-09-05T02:31:37.361Z,101615.16
2022-09-05T02:34:09.834Z,101617.91
2022-09-05T02:36:54.766Z,101608.09
2022-09-05T02:45:03.804Z,101612.72
2022-09-05T02:45:18.371Z,101609.25
2022-09-05T02:45:54.129Z,101607.47
2022-09-05T02:48:31.960Z,101607.56
2022-09-05T02:57:24.636Z,101606.72
2022-09-05T02:57:32.760Z,101613.03
2022-09-05T02:58:06.930Z,101610.47
2022-09-05T03:00:35.325Z,101607.78
2022-09-05T03:03:30.775Z,101606.09
2022-09-05T03:06:34.451Z,101602.63
2022-09-05T03:09:17.202Z,101595.50
2022-09-05T03:12:29.179Z,101592.03
2022-09-05T03:15:22.249Z,101605.53
2022-09-05T03:18:19.979Z,101593.09
2022-09-05T03:20:54.332Z,101602.09
2022-09-05T03:24:04.192Z,101600.34
2022-09-05T03:27:01.163Z,101601.31
2022-09-05T03:30:05.640Z,101608.59
2022-09-05T03:32:57.100Z,101602.41
2022-09-05T03:35:54.756Z,101597.06
2022-09-05T03:39:02.676Z,101613.31
2022-09-05T03:41:40.541Z,101617.84
2022-09-05T03:44:37.961Z,101613.34
2022-09-05T03:47:36.650Z,101620.56
2022-09-05T03:57:05.493Z,101625.13
2022-09-05T03:57:22.671Z,101619.81
2022-09-05T03:57:27.026Z,101614.56
2022-09-05T04:00:06.187Z,101623.63
2022-09-05T04:07:03.583Z,101627.31
2022-09-05T04:08:15.465Z,101627.34
2022-09-05T04:08:36.966Z,101631.84
2022-09-05T04:11:30.497Z,101626.50
2022-09-05T04:14:02.884Z,101623.81
2022-09-05T04:16:32.602Z,101627.50
2022-09-05T04:19:20.257Z,101631.09
2022-09-05T04:21:51.907Z,101639.25
2022-09-05T04:24:53.034Z,101638.38
2022-09-05T04:27:40.485Z,101637.53
2022-09-05T04:30:39.920Z,101646.56
2022-09-05T04:33:35.956Z,101646.56
2022-09-05T04:36:33.513Z,101644.81
2022-09-05T04:39:19.872Z,101641.31
2022-09-05T04:41:51.897Z,101640.47
2022-09-05T04:44:40.634Z,101636.94
2022-09-05T04:47:18.931Z,101643.25
2022-09-05T04:49:54.520Z,101643.28
2022-09-05T04:52:39.423Z,101654.06
2022-09-05T04:55:10.949Z,101661.31
2022-09-05T04:57:46.478Z,101655.94
2022-09-05T05:05:59.244Z,101660.31
2022-09-05T05:06:17.543Z,101664.81
2022-09-05T05:06:45.049Z,101668.38
2022-09-05T05:09:18.984Z,101669.28
2022-09-05T05:18:03.037Z,101678.25
2022-09-05T05:18:06.170Z,101674.66
2022-09-05T05:18:14.521Z,101673.78
2022-09-05T05:20:49.552Z,101673.69
2022-09-05T05:23:18.637Z,101678.25
2022-09-05T05:25:54.503Z,101670.22
2022-09-05T05:28:50.517Z,101674.78
2022-09-05T05:31:20.712Z,101672.09
2022-09-05T05:33:49.897Z,101673.81
2022-09-05T05:36:22.542Z,101686.28
2022-09-05T05:39:00.947Z,101679.03
2022-09-05T05:41:37.536Z,101682.50
2022-09-05T05:44:13.291Z,101680.63
2022-09-05T05:46:42.497Z,101685.06
2022-09-05T05:49:24.739Z,101692.91
2022-09-05T05:52:33.555Z,101687.25
2022-09-05T05:55:50.882Z,101693.19
2022-09-05T05:58:15.856Z,101699.06
2022-09-05T06:01:02.936Z,101698.78
2022-09-05T06:03:57.485Z,101703.19
2022-09-05T06:06:37.574Z,101692.47
2022-09-05T06:14:47.950Z,101697.00
2022-09-05T06:15:01.922Z,101699.81
2022-09-05T06:16:09.803Z,101696.22
2022-09-05T06:19:14.105Z,101704.34
2022-09-05T06:22:14.962Z,101698.00
2022-09-05T06:25:17.602Z,101694.72
2022-09-05T06:28:19.130Z,101703.22
2022-09-05T06:31:28.970Z,101697.28
2022-09-05T06:34:07.909Z,101702.06
2022-09-05T06:36:58.832Z,101699.06
2022-09-05T06:39:50.885Z,101700.19
2022-09-05T06:42:56.222Z,101696.88
2022-09-05T06:45:46.654Z,101697.41
2022-09-05T06:48:21.484Z,101693.63
2022-09-05T06:51:37.731Z,101695.03
2022-09-05T06:54:32.204Z,101697.56
2022-09-05T06:57:30.578Z,101702.03
2022-09-05T07:00:22.708Z,101703.94
2022-09-05T07:03:27.480Z,101704.16
2022-09-05T07:06:24.270Z,101697.69
2022-09-05T07:09:16.039Z,101702.31
2022-09-05T07:12:03.828Z,101709.13
2022-09-05T07:14:34.471Z,101715.59
2022-09-05T07:17:07.106Z,101716.78
2022-09-05T07:19:54.867Z,101715.09
2022-09-05T07:22:50.707Z,101722.41
2022-09-05T07:25:20.199Z,101726.69
2022-09-05T07:28:29.223Z,101742.34
2022-09-05T07:30:50.560Z,101734.78
2022-09-05T07:33:20.649Z,101734.50
2022-09-05T07:35:47.603Z,101743.38
2022-09-05T07:38:26.696Z,101727.72
2022-09-05T07:41:26.657Z,101724.63
2022-09-05T07:43:57.885Z,101734.41
2022-09-05T07:46:32.327Z,101724.94
2022-09-05T07:49:02.839Z,101724.28
2022-09-05T07:56:56.490Z,101722.00
2022-09-05T07:57:07.929Z,101719.38
2022-09-05T07:57:30.931Z,101715.03
2022-09-05T08:00:26.124Z,101714.25
2022-09-05T08:02:55.050Z,101706.06
2022-09-05T08:05:34.666Z,101711.78
2022-09-05T08:08:06.515Z,101708.91
2022-09-05T08:11:22.552Z,101704.31
2022-09-05T08:13:46.236Z,101704.66
2022-09-05T08:16:16.192Z,101707.31
2022-09-05T08:18:50.780Z,101709.97
2022-09-05T08:21:45.495Z,101703.75
2022-09-05T08:24:21.082Z,101708.06
2022-09-05T08:26:52.782Z,101706.47
2022-09-05T08:29:33.483Z,101708.34
2022-09-05T08:32:09.656Z,101708.34
2022-09-05T08:34:56.380Z,101709.47
2022-09-05T08:37:25.784Z,101712.53
2022-09-05T08:39:59.105Z,101719.63
2022-09-05T08:42:44.007Z,101709.34
2022-09-05T08:46:42.192Z,101714.56
2022-09-05T08:48:40.018Z,101708.97
2022-09-05T08:51:22.348Z,101709.13
2022-09-05T08:53:54.999Z,101705.72
2022-09-05T08:56:30.880Z,101700.13
2022-09-05T08:59:28.020Z,101698.78
2022-09-05T09:02:44.686Z,101695.78
2022-09-05T09:05:07.529Z,101693.53
2022-09-05T09:07:51.047Z,101683.75
2022-09-05T09:10:35.738Z,101684.06
2022-09-05T09:13:14.800Z,101683.56
2022-09-05T09:15:47.046Z,101679.72
2022-09-05T09:18:18.764Z,101677.78
2022-09-05T09:20:52.828Z,101678.41
2022-09-05T09:23:44.797Z,101665.28
2022-09-05T09:26:15.846Z,101670.19
2022-09-05T09:28:49.646Z,101662.47
2022-09-05T09:31:22.457Z,101662.94
2022-09-05T09:33:59.974Z,101660.53
2022-09-05T09:36:53.528Z,101654.75
2022-09-05T09:39:48.287Z,101645.72
2022-09-05T09:42:45.456Z,101654.84
2022-09-05T09:45:30.043Z,101643.94
2022-09-05T09:48:34.587Z,101646.41
2022-09-05T09:51:30.753Z,101645.28
2022-09-05T09:54:20.202Z,101641.53
2022-09-05T09:57:11.727Z,101636.84
2022-09-05T10:00:04.595Z,101640.47
2022-09-05T10:04:31.170Z,101635.00
2022-09-05T10:10:34.719Z,101639.41
2022-09-05T10:10:53.557Z,101639.22
2022-09-05T10:12:33.158Z,101642.38
2022-09-05T10:15:31.389Z,101636.56
2022-09-05T10:18:24.272Z,101636.09
2022-09-05T10:21:17.852Z,101626.50
2022-09-05T10:23:53.690Z,101632.66
2022-09-05T10:26:58.112Z,101630.72
2022-09-05T10:29:55.105Z,101618.75
2022-09-05T10:35:04.510Z,101629.56
2022-09-05T10:35:31.554Z,101622.97
2022-09-05T10:38:20.481Z,101628.94
2022-09-05T10:41:14.663Z,101620.28
2022-09-05T10:43:53.209Z,101624.00
2022-09-05T10:46:51.293Z,101613.69
2022-09-05T10:49:24.503Z,101613.69
2022-09-05T10:52:19.287Z,101613.50
2022-09-05T10:55:14.261Z,101603.31
2022-09-05T10:58:16.468Z,101597.66
2022-09-05T11:02:28.440Z,101591.22
2022-09-05T11:04:52.600Z,101596.69
2022-09-05T11:07:43.768Z,101588.50
2022-09-05T11:10:20.215Z,101592.06
2022-09-05T11:13:21.531Z,101584.78
2022-09-05T11:16:19.423Z,101589.25
2022-09-05T11:18:56.375Z,101583.91
2022-09-05T11:21:30.469Z,101575.84
2022-09-05T11:24:27.132Z,101580.63
2022-09-05T11:27:36.657Z,101582.34
2022-09-05T11:30:30.569Z,101581.28
2022-09-05T11:39:48.206Z,101581.09
2022-09-05T11:40:00.459Z,101582.84
2022-09-05T11:40:09.970Z,101580.88
2022-09-05T11:42:46.020Z,101586.16
2022-09-05T11:45:38.584Z,101566.94
2022-09-05T11:48:53.024Z,101570.47
2022-09-05T11:52:08.469Z,101571.34
2022-09-05T11:55:20.685Z,101570.22
2022-09-05T11:58:44.962Z,101557.38
2022-09-05T12:01:36.857Z,101559.69
2022-09-05T12:07:52.066Z,101552.06
2022-09-05T12:10:47.446Z,101557.31
2022-09-05T12:13:21.678Z,101547.13
2022-09-05T12:16:07.233Z,101542.31
2022-09-05T12:18:43.709Z,101549.31
2022-09-05T12:21:38.111Z,101544.53
2022-09-05T12:25:15.499Z,101538.03
2022-09-05T12:27:41.954Z,101535.28
2022-09-05T12:30:06.049Z,101537.81
2022-09-05T12:34:46.668Z,101535.84
2022-09-05T12:36:12.902Z,101537.38
2022-09-05T12:41:33.092Z,101524.31
2022-09-05T12:41:40.879Z,101561.34
2022-09-05T12:41:43.039Z,101524.81
2022-09-05T12:44:38.931Z,101533.34
2022-09-05T12:47:16.601Z,101525.66
2022-09-05T12:49:55.381Z,101534.06
2022-09-05T12:52:33.868Z,101527.97
2022-09-05T12:55:09.251Z,101520.25
2022-09-05T13:02:56.547Z,101522.56
2022-09-05T13:03:13.135Z,101520.19
2022-09-05T13:03:31.671Z,101516.91
2022-09-05T13:06:05.199Z,101519.22
2022-09-05T13:08:47.244Z,101519.66
2022-09-05T13:14:53.612Z,101520.53
2022-09-05T13:14:54.646Z,101526.56
2022-09-05T13:17:15.723Z,101505.34
2022-09-05T13:19:47.385Z,101501.19
2022-09-05T13:22:15.490Z,101496.19
2022-09-05T13:24:46.651Z,101483.06
2022-09-05T13:27:16.345Z,101484.72
2022-09-05T13:31:40.707Z,101491.78
2022-09-05T13:37:54.693Z,101479.09
2022-09-05T13:38:11.510Z,101480.09
2022-09-05T13:38:55.838Z,101483.50
2022-09-05T13:41:28.436Z,101469.34
2022-09-05T13:44:24.912Z,101472.41
2022-09-05T13:47:22.025Z,101466.38
2022-09-05T13:50:13.537Z,101468.75
2022-09-05T13:52:44.593Z,101472.13
2022-09-05T13:55:29.718Z,101463.81
2022-09-05T13:58:21.458Z,101467.53
2022-09-05T14:01:01.049Z,101455.63
2022-09-05T14:03:40.140Z,101456.50
2022-09-05T14:06:48.665Z,101457.13
2022-09-05T14:09:46.435Z,101450.53
2022-09-05T14:12:38.064Z,101459.56
2022-09-05T14:15:13.827Z,101452.97
2022-09-05T14:17:55.658Z,101449.88
2022-09-05T14:20:44.442Z,101453.50
2022-09-05T14:23:17.719Z,101457.22
2022-09-05T14:25:52.436Z,101454.47
2022-09-05T14:28:27.330Z,101441.56
2022-09-05T14:37:40.950Z,101450.66
2022-09-05T14:37:43.109Z,101445.28
2022-09-05T14:37:55.080Z,101451.41
2022-09-05T14:40:43.459Z,101438.19
2022-09-05T14:43:48.050Z,101441.03
2022-09-05T14:46:38.922Z,101439.03
2022-09-05T14:49:18.489Z,101441.91
2022-09-05T14:51:47.089Z,101449.56
2022-09-05T15:00:38.640Z,101441.63
2022-09-05T15:02:42.986Z,101438.47
2022-09-05T15:03:03.745Z,101434.47
2022-09-05T15:05:31.437Z,101433.16
2022-09-05T15:08:03.960Z,101432.75
2022-09-05T15:12:16.181Z,101435.81
2022-09-05T15:14:03.654Z,101437.97
2022-09-05T15:16:45.622Z,101431.75
2022-09-05T15:20:06.151Z,101437.03
2022-09-05T15:22:43.639Z,101435.59
2022-09-05T15:25:23.700Z,101433.59
2022-09-05T15:27:51.159Z,101427.28
2022-09-05T15:30:35.191Z,101426.59
2022-09-05T15:33:14.530Z,101435.34
2022-09-05T15:35:43.768Z,101441.16
2022-09-05T15:38:28.800Z,101435.13
2022-09-05T15:41:23.815Z,101435.59
2022-09-05T15:44:01.853Z,101439.75
2022-09-05T15:46:46.181Z,101435.50
2022-09-05T15:49:25.571Z,101427.53
2022-09-05T15:51:55.701Z,101431.47
2022-09-05T15:54:37.344Z,101424.25
2022-09-05T15:57:08.812Z,101415.50
2022-09-05T15:59:47.190Z,101430.13
2022-09-05T16:02:25.895Z,101421.28
2022-09-05T16:07:42.973Z,101423.38
2022-09-05T16:10:35.548Z,101419.88
2022-09-05T16:14:39.738Z,101415.03
2022-09-05T16:23:15.046Z,101422.88
2022-09-05T16:23:17.310Z,101422.56
2022-09-05T16:23:41.768Z,101418.84
2022-09-05T16:26:26.104Z,101420.25
2022-09-05T16:29:06.394Z,101427.69
2022-09-05T16:31:47.105Z,101427.03
2022-09-05T16:34:45.491Z,101418.94
2022-09-05T16:37:14.021Z,101420.00
2022-09-05T16:39:47.248Z,101422.88
2022-09-05T16:42:30.822Z,101414.69
2022-09-05T16:45:18.738Z,101415.66
2022-09-05T16:48:06.673Z,101414.88
2022-09-05T16:51:15.477Z,101418.69
2022-09-05T16:53:58.346Z,101410.81
2022-09-05T16:56:33.898Z,101414.94
2022-09-05T16:59:10.410Z,101411.66
2022-09-05T17:02:06.129Z,101411.00
2022-09-05T17:05:03.172Z,101406.81
2022-09-05T17:07:42.087Z,101410.94
2022-09-05T17:10:17.024Z,101413.13
2022-09-05T17:12:44.105Z,101408.81
2022-09-05T17:15:14.819Z,101413.75
2022-09-05T17:18:20.699Z,101418.72
2022-09-05T17:20:53.502Z,101409.09
2022-09-05T17:29:19.469Z,101420.22
2022-09-05T17:29:34.486Z,101421.34
2022-09-05T17:32:48.223Z,101415.53
2022-09-05T17:35:48.532Z,101423.81
2022-09-05T17:38:41.168Z,101415.94
2022-09-05T17:41:52.972Z,101415.28
2022-09-05T17:44:28.761Z,101416.31
2022-09-05T17:47:07.043Z,101414.69
2022-09-05T17:49:42.935Z,101411.28
2022-09-05T17:52:18.665Z,101415.19
2022-09-05T17:54:49.478Z,101415.38
2022-09-05T17:57:29.143Z,101411.97
2022-09-05T18:00:00.856Z,101413.16
2022-09-05T18:02:53.722Z,101409.84
2022-09-05T18:05:54.494Z,101419.28
2022-09-05T18:08:44.892Z,101421.50
2022-09-05T18:11:17.993Z,101422.56
2022-09-05T18:14:02.660Z,101428.34
2022-09-05T18:16:43.720Z,101422.19
2022-09-05T18:19:36.561Z,101427.84
2022-09-05T18:22:19.437Z,101418.09
2022-09-05T18:24:51.538Z,101429.22
2022-09-05T18:27:39.367Z,101434.81
2022-09-05T18:30:12.040Z,101431.50
2022-09-05T18:32:45.091Z,101432.69
2022-09-05T18:35:15.593Z,101442.81
2022-09-05T18:38:04.430Z,101446.69
2022-09-05T18:41:02.014Z,101448.69
2022-09-05T18:43:37.973Z,101456.31
2022-09-05T18:46:25.649Z,101455.72
2022-09-05T18:49:18.002Z,101455.06
2022-09-05T18:52:03.683Z,101451.84
2022-09-05T18:54:33.533Z,101457.47
2022-09-05T18:57:26.150Z,101451.34
2022-09-05T18:59:51.849Z,101461.53
2022-09-05T19:02:51.502Z,101459.94
2022-09-05T19:05:37.445Z,101463.06
2022-09-05T19:08:28.742Z,101459.81
2022-09-05T19:10:58.895Z,101455.63
2022-09-05T19:13:34.131Z,101460.34
2022-09-05T19:16:42.465Z,101456.94
2022-09-05T19:19:16.398Z,101462.66
2022-09-05T19:22:32.008Z,101471.06
2022-09-05T19:24:45.217Z,101457.81
2022-09-05T19:28:29.218Z,101462.47
2022-09-05T19:36:59.987Z,101459.94
2022-09-05T19:37:03.612Z,101456.41
2022-09-05T19:37:05.765Z,101455.63
2022-09-05T19:38:23.212Z,101456.75
2022-09-05T19:46:41.619Z,101465.09
2022-09-05T19:47:42.806Z,101459.22
2022-09-05T19:47:55.889Z,101455.44
2022-09-05T19:49:13.004Z,101462.28
2022-09-05T19:51:43.672Z,101467.00
2022-09-05T19:54:28.277Z,101458.16
2022-09-05T19:57:00.737Z,101460.25
2022-09-05T19:59:34.274Z,101474.03
2022-09-05T20:02:02.290Z,101473.22
2022-09-05T20:04:36.801Z,101456.28
2022-09-05T20:07:15.389Z,101468.16
2022-09-05T20:09:44.308Z,101463.91
2022-09-05T20:12:29.950Z,101465.91
2022-09-05T20:14:57.779Z,101458.97
2022-09-05T20:17:30.993Z,101456.44
2022-09-05T20:20:11.228Z,101462.00
2022-09-05T20:22:49.074Z,101454.94
2022-09-05T20:25:39.815Z,101459.56
2022-09-05T20:28:10.653Z,101456.06
2022-09-05T20:30:42.348Z,101452.53
2022-09-05T20:33:27.575Z,101452.72
2022-09-05T20:39:42.367Z,101461.88
2022-09-05T20:43:15.705Z,101461.25
2022-09-05T20:43:32.089Z,101460.22
2022-09-05T20:44:58.805Z,101456.69
2022-09-05T20:49:44.858Z,101459.53
2022-09-05T20:54:15.604Z,101455.94
2022-09-05T20:54:31.801Z,101460.56
2022-09-05T20:56:30.736Z,101465.19
2022-09-05T20:59:00.870Z,101457.19
2022-09-05T21:01:32.213Z,101460.91
2022-09-05T21:04:04.300Z,101456.50
2022-09-05T21:06:41.378Z,101465.59
2022-09-05T21:09:08.053Z,101460.25
2022-09-05T21:11:34.791Z,101464.88
2022-09-05T21:14:04.311Z,101461.41
2022-09-05T21:16:35.647Z,101452.44
2022-09-05T21:19:02.551Z,101450.78
2022-09-05T21:21:31.492Z,101445.38
2022-09-05T21:24:16.279Z,101448.34
2022-09-05T21:26:46.573Z,101453.06
2022-09-05T21:29:16.506Z,101463.09
2022-09-05T21:31:46.295Z,101472.38
2022-09-05T21:34:22.943Z,101470.72
2022-09-05T21:37:06.371Z,101463.69
2022-09-05T21:39:59.894Z,101461.22
2022-09-05T21:44:25.405Z,101462.16
2022-09-05T21:47:40.314Z,101456.97
2022-09-05T21:48:06.476Z,101454.34
2022-09-05T21:50:39.105Z,101461.69
2022-09-05T21:53:46.947Z,101463.59
2022-09-05T21:59:26.557Z,101451.31
2022-09-05T21:59:33.302Z,101457.75
2022-09-05T22:01:51.770Z,101448.91
2022-09-05T22:04:18.911Z,101450.00
2022-09-05T22:06:48.145Z,101450.25
2022-09-05T22:09:19.697Z,101447.75
2022-09-05T22:11:50.265Z,101444.31
2022-09-05T22:14:19.374Z,101439.06
2022-09-05T22:16:47.408Z,101452.50
2022-09-05T22:19:22.302Z,101439.06
2022-09-05T22:21:50.541Z,101436.34
2022-09-05T22:24:17.699Z,101438.16
2022-09-05T22:27:11.767Z,101428.28
2022-09-05T22:29:35.363Z,101419.31
2022-09-05T22:32:02.190Z,101425.78
2022-09-05T22:34:28.981Z,101415.91
2022-09-05T22:36:56.059Z,101411.53
2022-09-05T22:39:36.525Z,101417.16
2022-09-05T22:42:10.101Z,101415.47
2022-09-05T22:44:41.166Z,101420.19
2022-09-05T22:47:11.285Z,101419.47
2022-09-05T22:49:38.055Z,101422.16
2022-09-05T22:52:06.270Z,101425.75
2022-09-05T22:54:33.758Z,101426.66
2022-09-05T22:57:00.537Z,101422.16
2022-09-05T22:59:27.313Z,101421.28
2022-09-05T23:01:54.114Z,101418.56
2022-09-05T23:04:20.968Z,101412.28
2022-09-05T23:06:47.825Z,101421.34
2022-09-05T23:09:14.571Z,101407.03
2022-09-05T23:11:41.387Z,101412.56
2022-09-05T23:14:08.136Z,101406.44
2022-09-05T23:16:34.858Z,101409.22
2022-09-05T23:19:01.627Z,101410.34
2022-09-05T23:21:28.363Z,101410.34
2022-09-05T23:23:55.099Z,101404.09
2022-09-05T23:26:22.285Z,101402.34
2022-09-05T23:28:49.042Z,101397.09
2022-09-05T23:31:15.899Z,101391.81
2022-09-05T23:33:42.724Z,101387.41
2022-09-05T23:36:12.527Z,101383.91
2022-09-05T23:38:41.324Z,101384.06
2022-09-05T23:41:14.172Z,101377.88
2022-09-05T23:43:40.945Z,101365.44
2022-09-05T23:46:08.146Z,101357.47
2022-09-05T23:48:35.144Z,101362.06
2022-09-05T23:51:06.878Z,101349.63
2022-09-05T23:53:33.822Z,101349.78
2022-09-05T23:56:04.454Z,101353.59
2022-09-05T23:58:31.888Z,101351.84
